Archie Wilson — WDD4935 — position and weather

sailwx.info

Track history (hours):
 
Tides and Currents Weather Stations Pressure Air Temp Water Temp Dewpoint Dewpoint Depression Visibility Wind Speed Wind Dir Waves Ship Positions

Archie Wilson

Owner: Kirby Inland Marine LP, Houston, TX. More information available from US FCC via Universal Licensing System and Coast Guard Vessel Documentation Center.

Last reported at 2018-Feb-21 23:14 UTC. Time now 2018-Feb-24 03:49 UTC.
Position N 32°37' W 091°09'.

Length 207 m; draft 2.7 m.

Type: . MMSI: 367151380.

Date/timePositionNaut miles runAvg speedWind from/ knotsBaromVisibWave heightAir tempDewpointWater temp
2018-Feb-21 23:14N 32°37' W 091°09'1 5.3
2018-Feb-21 23:00N 32°36' W 091°09'3 5.1
2018-Feb-21 22:30N 32°34' W 091°07'2 4.8
2018-Feb-21 22:00N 32°32' W 091°06'3 5.5
2018-Feb-21 21:30N 32°30' W 091°07'2 4.8
2018-Feb-21 21:00N 32°27' W 091°06'2 4.7
2018-Feb-21 20:30N 32°26' W 091°03'3 5.1
2018-Feb-21 20:00N 32°25' W 091°00'2 4.9
2018-Feb-21 19:30N 32°23' W 091°00'2 3.8
2018-Feb-21 19:00N 32°21' W 090°59'2 4.6
2018-Feb-21 18:30N 32°21' W 090°56'2 4.7
2018-Feb-21 18:00N 32°20' W 090°54'1 2.9
2018-Feb-21 17:30N 32°18' W 090°55'0 0.2
2018-Feb-21 17:00N 32°18' W 090°55'0 0.0
2018-Feb-21 16:30N 32°18' W 090°55'0 0.0
2018-Feb-21 16:00N 32°18' W 090°55'0 0.7
2018-Feb-21 15:30N 32°18' W 090°55'3 5.9
2018-Feb-21 15:00N 32°16' W 090°58'3 6.0
2018-Feb-21 14:30N 32°13' W 090°59'3 6.0
2018-Feb-21 14:00N 32°10' W 090°60'3 5.1
2018-Feb-21 13:30N 32°08' W 091°01'2 4.6
2018-Feb-21 13:00N 32°08' W 091°03'2 4.8
2018-Feb-21 12:30N 32°08' W 091°06'4 4.5
2018-Feb-21 11:41N 32°05' W 091°04'1 5.3
2018-Feb-21 11:30N 32°04' W 091°04'  
2018-Feb-12 12:54N 29°33' W 090°24'3 5.1
2018-Feb-12 12:17N 29°33' W 090°27'2 5.4
2018-Feb-12 12:01N 29°34' W 090°29'3 5.3
2018-Feb-12 11:31N 29°34' W 090°32'3 5.2
2018-Feb-12 11:00N 29°35' W 090°35'2 4.0
2018-Feb-12 10:30N 29°35' W 090°37'2 5.0
2018-Feb-12 10:01N 29°36' W 090°40'2 3.9
2018-Feb-12 09:31N 29°37' W 090°42'1 2.2
2018-Feb-12 09:01N 29°36' W 090°43'2 3.7
2018-Feb-12 08:30N 29°34' W 090°43'2 3.7
2018-Feb-12 08:01N 29°33' W 090°45'2 3.7
2018-Feb-12 07:31N 29°32' W 090°47'3 5.9
2018-Feb-12 07:01N 29°32' W 090°50'3 6.1
2018-Feb-12 06:30N 29°33' W 090°54'4 6.2
2018-Feb-12 05:53N 29°35' W 090°57'  
Track history (hours):
 
Tides and Currents Weather Stations Pressure Air Temp Water Temp Dewpoint Dewpoint Depression Visibility Wind Speed Wind Dir Waves Ship Positions

Archie Wilson

Owner: Kirby Inland Marine LP, Houston, TX. More information available from US FCC via Universal Licensing System and Coast Guard Vessel Documentation Center.

Last reported at 2018-Feb-21 23:14 UTC. Time now 2018-Feb-24 03:49 UTC.
Position N 32°37' W 091°09'.

Length 207 m; draft 2.7 m.

Type: . MMSI: 367151380.

Date/timePositionNaut miles runAvg speedWind from/ knotsBaromVisibWave heightAir tempDewpointWater temp
2018-Feb-21 23:14N 32°37' W 091°09'1 5.3
2018-Feb-21 23:00N 32°36' W 091°09'3 5.1
2018-Feb-21 22:30N 32°34' W 091°07'2 4.8
2018-Feb-21 22:00N 32°32' W 091°06'3 5.5
2018-Feb-21 21:30N 32°30' W 091°07'2 4.8
2018-Feb-21 21:00N 32°27' W 091°06'2 4.7
2018-Feb-21 20:30N 32°26' W 091°03'3 5.1
2018-Feb-21 20:00N 32°25' W 091°00'2 4.9
2018-Feb-21 19:30N 32°23' W 091°00'2 3.8
2018-Feb-21 19:00N 32°21' W 090°59'2 4.6
2018-Feb-21 18:30N 32°21' W 090°56'2 4.7
2018-Feb-21 18:00N 32°20' W 090°54'1 2.9
2018-Feb-21 17:30N 32°18' W 090°55'0 0.2
2018-Feb-21 17:00N 32°18' W 090°55'0 0.0
2018-Feb-21 16:30N 32°18' W 090°55'0 0.0
2018-Feb-21 16:00N 32°18' W 090°55'0 0.7
2018-Feb-21 15:30N 32°18' W 090°55'3 5.9
2018-Feb-21 15:00N 32°16' W 090°58'3 6.0
2018-Feb-21 14:30N 32°13' W 090°59'3 6.0
2018-Feb-21 14:00N 32°10' W 090°60'3 5.1
2018-Feb-21 13:30N 32°08' W 091°01'2 4.6
2018-Feb-21 13:00N 32°08' W 091°03'2 4.8
2018-Feb-21 12:30N 32°08' W 091°06'4 4.5
2018-Feb-21 11:41N 32°05' W 091°04'1 5.3
2018-Feb-21 11:30N 32°04' W 091°04'  
2018-Feb-12 12:54N 29°33' W 090°24'3 5.1
2018-Feb-12 12:17N 29°33' W 090°27'2 5.4
2018-Feb-12 12:01N 29°34' W 090°29'3 5.3
2018-Feb-12 11:31N 29°34' W 090°32'3 5.2
2018-Feb-12 11:00N 29°35' W 090°35'2 4.0
2018-Feb-12 10:30N 29°35' W 090°37'2 5.0
2018-Feb-12 10:01N 29°36' W 090°40'2 3.9
2018-Feb-12 09:31N 29°37' W 090°42'1 2.2
2018-Feb-12 09:01N 29°36' W 090°43'2 3.7
2018-Feb-12 08:30N 29°34' W 090°43'2 3.7
2018-Feb-12 08:01N 29°33' W 090°45'2 3.7
2018-Feb-12 07:31N 29°32' W 090°47'3 5.9
2018-Feb-12 07:01N 29°32' W 090°50'3 6.1
2018-Feb-12 06:30N 29°33' W 090°54'4 6.2
2018-Feb-12 05:53N 29°35' W 090°57'  

Dump ship's entire track history